Time;durP1;ratioP1;P1;durP2;ratioP2;P2;SDS_P1;SDS_P2;PMS_P1;PMS_P2;Temp;Humidity;BMP_temperature;BMP_pressure;BME280_temperature;BME280_humidity;BME280_pressure;Samples;Min_cycle;Max_cycle;Signal;HPM_P1;HPM_P2
2021/07/05 00:00:46;;;;;;;7.87;6.97;;;16.60;99.90;;;;;;4991181;28;20204;-82
2021/07/05 00:03:13;;;;;;;10.18;7.50;;;16.60;99.90;;;;;;4983896;28;20200;-80
2021/07/05 00:05:40;;;;;;;12.68;8.25;;;16.60;99.90;;;;;;4984481;28;20220;-80
2021/07/05 00:08:07;;;;;;;10.57;7.30;;;16.70;99.90;;;;;;4982976;28;20211;-80
2021/07/05 00:10:35;;;;;;;7.28;6.25;;;16.70;99.90;;;;;;5003518;28;20223;-79
2021/07/05 00:13:02;;;;;;;10.98;6.20;;;16.70;99.90;;;;;;4999960;28;20207;-80
2021/07/05 00:15:32;;;;;;;6.53;5.43;;;16.70;99.90;;;;;;4983170;28;20200;-78
2021/07/05 00:18:01;;;;;;;6.20;5.30;;;16.70;99.90;;;;;;4983605;28;20207;-76
2021/07/05 00:20:29;;;;;;;7.93;6.15;;;16.70;99.90;;;;;;4983402;28;20203;-79
2021/07/05 00:22:57;;;;;;;10.95;6.88;;;16.70;99.90;;;;;;4982663;28;20220;-80
2021/07/05 00:25:25;;;;;;;9.63;6.90;;;16.70;99.90;;;;;;4983117;28;20643;-83
2021/07/05 00:27:52;;;;;;;8.07;6.25;;;16.80;99.90;;;;;;4981819;28;20208;-80
2021/07/05 00:30:19;;;;;;;6.47;5.82;;;16.80;99.90;;;;;;4982456;28;20612;-79
2021/07/05 00:32:48;;;;;;;8.65;7.35;;;16.80;99.90;;;;;;4977762;28;20215;-78
2021/07/05 00:35:16;;;;;;;7.90;6.40;;;16.80;99.90;;;;;;4980855;28;20215;-81
2021/07/05 00:37:44;;;;;;;6.78;6.05;;;16.80;99.90;;;;;;4989556;28;20214;-80
2021/07/05 00:40:11;;;;;;;10.75;7.70;;;16.90;99.90;;;;;;4992975;28;20258;-79
2021/07/05 00:42:39;;;;;;;8.18;6.70;;;16.90;99.90;;;;;;4994240;28;20302;-79
2021/07/05 00:45:08;;;;;;;9.05;6.05;;;16.90;99.90;;;;;;5000214;28;20230;-80
2021/07/05 00:47:35;;;;;;;9.52;7.78;;;16.90;99.90;;;;;;4983990;28;20211;-80
2021/07/05 00:50:07;;;;;;;11.68;7.97;;;16.90;99.90;;;;;;4982579;28;20203;-80
2021/07/05 00:52:34;;;;;;;9.93;7.25;;;17.00;99.90;;;;;;4983535;28;20212;-81
2021/07/05 00:55:01;;;;;;;11.02;7.18;;;17.00;99.90;;;;;;4983232;28;20214;-80
2021/07/05 00:57:28;;;;;;;10.57;7.78;;;17.00;99.90;;;;;;4983675;28;20200;-79
2021/07/05 00:59:57;;;;;;;7.53;6.70;;;17.00;99.90;;;;;;4982512;28;20215;-80
2021/07/05 01:02:26;;;;;;;8.80;6.88;;;17.00;99.90;;;;;;4983109;28;20204;-79
2021/07/05 01:04:53;;;;;;;9.70;6.85;;;17.00;99.90;;;;;;4984133;28;20208;-79
2021/07/05 01:07:23;;;;;;;10.05;6.57;;;17.00;99.90;;;;;;4968674;28;20218;-79
2021/07/05 01:09:50;;;;;;;6.13;5.20;;;17.00;99.90;;;;;;4982759;28;20206;-80
2021/07/05 01:12:17;;;;;;;7.40;5.80;;;17.00;99.90;;;;;;4982898;28;20203;-79
2021/07/05 01:14:45;;;;;;;6.63;5.45;;;17.00;99.90;;;;;;4982642;28;20196;-79
2021/07/05 01:17:13;;;;;;;6.45;4.50;;;17.00;99.90;;;;;;4997284;28;20203;-81
2021/07/05 01:19:42;;;;;;;6.72;3.92;;;17.00;99.90;;;;;;5002542;28;20277;-80
2021/07/05 01:22:11;;;;;;;6.25;3.78;;;17.00;99.90;;;;;;4997295;28;20937;-80
2021/07/05 01:24:38;;;;;;;4.70;3.40;;;17.00;99.90;;;;;;4981984;28;20203;-79
2021/07/05 01:27:06;;;;;;;6.30;4.05;;;17.00;99.90;;;;;;4985742;28;20236;-79
2021/07/05 01:29:34;;;;;;;7.55;4.43;;;16.90;99.90;;;;;;4986137;28;20216;-80
2021/07/05 01:32:01;;;;;;;11.52;4.03;;;16.90;99.90;;;;;;4985848;28;20239;-79
2021/07/05 01:34:30;;;;;;;4.35;2.90;;;16.90;99.90;;;;;;5001517;28;20211;-81
2021/07/05 01:36:57;;;;;;;6.53;3.75;;;16.90;99.90;;;;;;5005680;28;20631;-80
2021/07/05 01:39:25;;;;;;;7.68;4.00;;;16.90;99.90;;;;;;4990157;28;20714;-81
2021/07/05 01:41:53;;;;;;;6.43;3.03;;;16.90;99.90;;;;;;5005907;28;20195;-80
2021/07/05 01:44:20;;;;;;;12.80;3.30;;;16.90;99.90;;;;;;5005298;28;20901;-79
2021/07/05 01:46:47;;;;;;;9.90;3.80;;;16.90;99.90;;;;;;5004989;28;20238;-78
2021/07/05 01:49:13;;;;;;;7.45;3.13;;;16.90;99.90;;;;;;5006304;28;20210;-80
2021/07/05 01:51:40;;;;;;;11.40;3.60;;;16.90;99.90;;;;;;4998248;28;20506;-78
2021/07/05 01:54:07;;;;;;;10.52;3.58;;;16.80;99.90;;;;;;4985545;28;20624;-80
2021/07/05 01:56:36;;;;;;;8.85;3.20;;;16.80;99.90;;;;;;4985981;28;20844;-81
2021/07/05 01:59:03;;;;;;;10.77;3.30;;;16.80;99.90;;;;;;4985902;28;20211;-79
2021/07/05 02:01:31;;;;;;;9.82;3.38;;;16.90;99.90;;;;;;4986212;28;20199;-80
2021/07/05 02:03:59;;;;;;;10.27;3.30;;;16.80;99.90;;;;;;4986004;28;20754;-82
2021/07/05 02:06:26;;;;;;;14.37;3.90;;;16.80;99.90;;;;;;5004888;28;20237;-80
2021/07/05 02:08:53;;;;;;;12.38;3.88;;;16.90;99.90;;;;;;5005545;28;20294;-80
2021/07/05 02:11:21;;;;;;;9.75;4.20;;;16.90;99.90;;;;;;4992075;28;20204;-82
2021/07/05 02:13:49;;;;;;;11.07;3.90;;;16.90;99.90;;;;;;4985031;28;20204;-79
2021/07/05 02:16:16;;;;;;;12.43;4.05;;;16.90;99.90;;;;;;4984861;28;20348;-80
2021/07/05 02:18:43;;;;;;;9.68;4.07;;;16.90;99.90;;;;;;4985538;28;20236;-82
2021/07/05 02:21:10;;;;;;;9.73;3.95;;;16.80;99.90;;;;;;5057978;22;20236;-80
2021/07/05 02:23:39;;;;;;;13.35;4.70;;;16.90;99.90;;;;;;5064031;28;20208;-80
2021/07/05 02:26:07;;;;;;;12.45;4.68;;;16.90;99.90;;;;;;5054060;28;20614;-81
2021/07/05 02:28:38;;;;;;;16.08;5.07;;;16.90;99.90;;;;;;5044544;28;20213;-78
2021/07/05 02:31:08;;;;;;;14.02;5.22;;;16.90;99.90;;;;;;5044960;28;20198;-80
2021/07/05 02:33:35;;;;;;;17.27;5.13;;;16.90;99.90;;;;;;5037309;28;20504;-79
2021/07/05 02:36:04;;;;;;;15.45;5.47;;;16.90;99.90;;;;;;5023774;28;20198;-81
2021/07/05 02:38:34;;;;;;;18.40;5.45;;;16.90;99.90;;;;;;5023600;28;20213;-82
2021/07/05 02:41:01;;;;;;;12.90;5.32;;;16.90;99.90;;;;;;5023872;28;20226;-82
2021/07/05 02:43:29;;;;;;;13.93;4.88;;;16.90;99.90;;;;;;5024074;28;20213;-78
2021/07/05 02:45:57;;;;;;;16.70;5.97;;;16.90;99.90;;;;;;5024034;28;20222;-79
2021/07/05 02:48:27;;;;;;;12.60;4.63;;;16.90;99.90;;;;;;5023632;28;20190;-80
2021/07/05 02:50:56;;;;;;;12.07;4.80;;;16.90;99.90;;;;;;5028114;28;20723;-82
2021/07/05 02:53:24;;;;;;;13.95;5.43;;;16.80;99.90;;;;;;5044717;28;20196;-83
2021/07/05 02:55:50;;;;;;;15.45;5.55;;;16.80;99.90;;;;;;5026789;28;20225;-82
2021/07/05 02:58:18;;;;;;;15.27;5.10;;;16.80;99.90;;;;;;5023928;28;20232;-78
2021/07/05 03:00:50;;;;;;;21.30;5.03;;;16.80;99.90;;;;;;5024338;28;20202;-76
2021/07/05 03:03:17;;;;;;;10.23;5.00;;;16.80;99.90;;;;;;5023774;28;20198;-78
2021/07/05 03:05:48;;;;;;;13.67;5.60;;;16.80;99.90;;;;;;5024855;28;20967;-80
2021/07/05 03:08:15;;;;;;;17.67;5.00;;;16.80;99.90;;;;;;5024769;28;20201;-78
2021/07/05 03:10:43;;;;;;;11.95;4.95;;;16.80;99.90;;;;;;5024002;28;20210;-78
2021/07/05 03:13:12;;;;;;;11.90;4.73;;;16.80;99.90;;;;;;5023982;28;20324;-77
2021/07/05 03:15:40;;;;;;;16.70;5.97;;;16.80;99.90;;;;;;5024224;28;20215;-79
2021/07/05 03:18:08;;;;;;;13.25;4.88;;;16.80;99.90;;;;;;5023114;28;20198;-77
2021/07/05 03:20:38;;;;;;;12.90;5.10;;;16.70;99.90;;;;;;5024191;28;20262;-78
2021/07/05 03:23:09;;;;;;;14.70;5.28;;;16.80;99.90;;;;;;5023859;28;20932;-77
2021/07/05 03:25:38;;;;;;;16.55;4.95;;;16.70;99.90;;;;;;5023259;28;20226;-78
2021/07/05 03:28:06;;;;;;;13.57;4.60;;;16.70;99.90;;;;;;5023839;28;20220;-79
2021/07/05 03:30:35;;;;;;;10.77;4.70;;;16.70;99.90;;;;;;5023724;28;20213;-78
2021/07/05 03:33:02;;;;;;;17.05;5.53;;;16.70;99.90;;;;;;5024810;28;20198;-78
2021/07/05 03:35:29;;;;;;;28.00;7.63;;;16.70;99.90;;;;;;5023619;28;20202;-79
2021/07/05 03:37:57;;;;;;;21.35;5.90;;;16.70;99.90;;;;;;5023871;28;20187;-80
2021/07/05 03:40:27;;;;;;;13.20;4.78;;;16.70;99.90;;;;;;5023070;28;20349;-79
2021/07/05 03:42:55;;;;;;;12.68;5.88;;;16.70;99.90;;;;;;5023762;28;20670;-78
2021/07/05 03:45:27;;;;;;;15.30;5.85;;;16.80;99.90;;;;;;5022963;28;20210;-80
2021/07/05 03:47:55;;;;;;;16.38;6.50;;;16.80;99.90;;;;;;5023353;28;20230;-79
2021/07/05 03:50:22;;;;;;;14.37;5.63;;;16.70;99.90;;;;;;5022704;28;20198;-78
2021/07/05 03:52:50;;;;;;;16.15;6.28;;;16.80;99.90;;;;;;5022630;28;20207;-79
2021/07/05 03:55:20;;;;;;;15.95;5.60;;;16.80;99.90;;;;;;5022288;28;20210;-80
2021/07/05 03:57:49;;;;;;;18.58;5.63;;;16.80;99.90;;;;;;5022326;28;20552;-78
2021/07/05 04:00:18;;;;;;;20.77;6.57;;;16.80;99.90;;;;;;5021418;28;20615;-80
2021/07/05 04:02:46;;;;;;;14.35;5.18;;;16.80;99.90;;;;;;5022241;28;20483;-81
2021/07/05 04:05:13;;;;;;;11.73;4.93;;;16.80;99.90;;;;;;5022152;28;20214;-77
2021/07/05 04:07:42;;;;;;;12.68;5.57;;;16.80;99.90;;;;;;5021961;28;20215;-78
2021/07/05 04:10:10;;;;;;;11.82;5.18;;;16.70;99.90;;;;;;5022575;28;20203;-78
2021/07/05 04:12:37;;;;;;;11.80;5.35;;;16.70;99.90;;;;;;5022431;28;20532;-77
2021/07/05 04:15:08;;;;;;;16.73;6.13;;;16.70;99.90;;;;;;5021666;28;20210;-78
2021/07/05 04:17:36;;;;;;;13.85;4.95;;;16.70;99.90;;;;;;5026784;28;20198;-78
2021/07/05 04:20:05;;;;;;;9.07;5.10;;;16.70;99.90;;;;;;5024048;28;20234;-77
2021/07/05 04:22:32;;;;;;;14.85;5.30;;;16.70;99.90;;;;;;5023696;28;20209;-78
2021/07/05 04:24:59;;;;;;;10.05;4.75;;;16.70;99.90;;;;;;5022845;28;20194;-78
2021/07/05 04:27:26;;;;;;;11.07;4.90;;;16.60;99.90;;;;;;5021805;28;20218;-78
2021/07/05 04:29:52;;;;;;;13.32;5.50;;;16.60;99.90;;;;;;5022488;28;20209;-78
2021/07/05 04:32:20;;;;;;;11.90;4.95;;;16.60;99.90;;;;;;5021933;28;20206;-78
2021/07/05 04:34:47;;;;;;;12.15;5.15;;;16.60;99.90;;;;;;5021446;28;20218;-77
2021/07/05 04:37:14;;;;;;;12.50;5.13;;;16.50;99.90;;;;;;5022260;28;20250;-76
2021/07/05 04:39:41;;;;;;;12.23;5.03;;;16.50;99.90;;;;;;5022425;28;20224;-77
2021/07/05 04:42:08;;;;;;;11.98;5.00;;;16.50;99.90;;;;;;5021524;28;20198;-76
2021/07/05 04:44:36;;;;;;;12.77;5.38;;;16.50;99.90;;;;;;5022527;28;20203;-76
2021/07/05 04:47:03;;;;;;;15.48;5.40;;;16.50;99.90;;;;;;5022264;28;20238;-77
2021/07/05 04:49:31;;;;;;;7.05;4.40;;;16.50;99.90;;;;;;5021880;28;20610;-81
2021/07/05 04:51:59;;;;;;;8.02;4.97;;;16.50;99.90;;;;;;5021637;28;20669;-78
2021/07/05 04:54:26;;;;;;;11.40;4.80;;;16.50;99.90;;;;;;5022211;28;20206;-80
2021/07/05 04:56:53;;;;;;;11.35;5.47;;;16.50;99.90;;;;;;5021363;28;20199;-81
2021/07/05 04:59:20;;;;;;;11.75;5.53;;;16.60;99.90;;;;;;5021425;28;20210;-80
2021/07/05 05:01:47;;;;;;;13.02;5.43;;;16.50;99.90;;;;;;5024663;28;20206;-78
2021/07/05 05:04:14;;;;;;;13.82;5.78;;;16.50;99.90;;;;;;5024388;28;20209;-77
2021/07/05 05:06:43;;;;;;;9.10;5.00;;;16.50;99.90;;;;;;5025125;28;20673;-78
2021/07/05 05:09:10;;;;;;;11.18;5.38;;;16.50;99.90;;;;;;5024652;28;20214;-79
2021/07/05 05:11:36;;;;;;;14.93;5.77;;;16.50;99.90;;;;;;5025403;28;20527;-80
2021/07/05 05:14:03;;;;;;;16.60;5.47;;;16.50;99.90;;;;;;5024882;28;20206;-81
2021/07/05 05:16:30;;;;;;;13.75;5.80;;;16.50;99.90;;;;;;5025078;28;20748;-78
2021/07/05 05:18:57;;;;;;;16.17;5.80;;;16.50;99.90;;;;;;5025394;28;20799;-78
2021/07/05 05:21:24;;;;;;;11.88;5.88;;;16.40;99.90;;;;;;5025089;28;20646;-76
2021/07/05 05:23:52;;;;;;;10.85;5.70;;;16.40;99.90;;;;;;5025472;28;20206;-79
2021/07/05 05:26:19;;;;;;;10.43;4.95;;;16.40;99.90;;;;;;5025534;28;20222;-80
2021/07/05 05:28:47;;;;;;;12.27;5.40;;;16.40;99.90;;;;;;5025265;28;20892;-78
2021/07/05 05:31:14;;;;;;;13.23;5.97;;;16.40;99.90;;;;;;5024196;28;20646;-77
2021/07/05 05:33:41;;;;;;;13.07;6.30;;;16.50;99.90;;;;;;5025519;28;20186;-78
2021/07/05 05:36:09;;;;;;;12.02;5.03;;;16.40;99.90;;;;;;5026593;28;20218;-80
2021/07/05 05:38:36;;;;;;;11.57;6.22;;;16.50;99.90;;;;;;5037840;28;20670;-79
2021/07/05 05:41:04;;;;;;;12.25;5.68;;;16.50;99.90;;;;;;5034917;28;20207;-78
2021/07/05 05:43:31;;;;;;;11.82;5.72;;;16.50;99.90;;;;;;5025206;28;20294;-79
2021/07/05 05:46:01;;;;;;;18.67;6.70;;;16.60;99.90;;;;;;5040395;28;20217;-78
2021/07/05 05:48:28;;;;;;;10.82;5.95;;;16.60;99.90;;;;;;5027288;28;20317;-76
2021/07/05 05:50:56;;;;;;;12.23;5.53;;;16.60;99.90;;;;;;5024809;28;20206;-78
2021/07/05 05:53:23;;;;;;;12.68;5.95;;;16.60;99.90;;;;;;5025200;28;20212;-77
2021/07/05 05:55:49;;;;;;;13.00;6.22;;;16.60;99.90;;;;;;5025285;28;20206;-79
2021/07/05 05:58:18;;;;;;;10.05;5.20;;;16.60;99.90;;;;;;5023460;28;20201;-80
2021/07/05 06:00:45;;;;;;;12.30;6.47;;;16.60;99.90;;;;;;5024693;28;20309;-78
2021/07/05 06:03:12;;;;;;;15.48;6.25;;;16.60;99.90;;;;;;5024035;28;20221;-77
2021/07/05 06:05:39;;;;;;;14.23;6.72;;;16.60;99.90;;;;;;5024237;28;20209;-77
2021/07/05 06:08:06;;;;;;;17.35;6.43;;;16.60;99.90;;;;;;5024598;28;20226;-78
2021/07/05 06:10:33;;;;;;;13.65;6.18;;;16.60;99.90;;;;;;5024678;28;20225;-80
2021/07/05 06:13:00;;;;;;;14.32;5.80;;;16.60;99.90;;;;;;5024054;28;20510;-78
2021/07/05 06:15:28;;;;;;;17.13;6.57;;;16.60;99.90;;;;;;5024728;28;20203;-82
2021/07/05 06:17:55;;;;;;;13.73;6.30;;;16.60;99.90;;;;;;5024354;28;20209;-79
2021/07/05 06:20:22;;;;;;;13.73;6.63;;;16.70;99.90;;;;;;5023137;28;20249;-77
2021/07/05 06:22:51;;;;;;;16.63;6.25;;;16.80;99.90;;;;;;5023627;28;20297;-79
2021/07/05 06:25:18;;;;;;;14.77;5.68;;;16.90;99.90;;;;;;5022739;28;21019;-80
2021/07/05 06:27:45;;;;;;;14.43;6.70;;;17.00;99.90;;;;;;5023469;28;20233;-78
2021/07/05 06:30:13;;;;;;;10.20;5.37;;;17.10;99.90;;;;;;5023517;28;20213;-79
2021/07/05 06:32:41;;;;;;;12.93;5.65;;;17.20;99.90;;;;;;5024326;28;20210;-75
2021/07/05 06:35:09;;;;;;;9.48;5.50;;;17.30;99.90;;;;;;5022389;28;20207;-78
2021/07/05 06:37:37;;;;;;;13.30;6.35;;;17.30;99.90;;;;;;5024193;28;20205;-77
2021/07/05 06:40:05;;;;;;;13.68;5.57;;;17.40;99.90;;;;;;5024118;28;20801;-78
2021/07/05 06:42:32;;;;;;;9.40;4.93;;;17.50;99.90;;;;;;5024165;28;20207;-77
2021/07/05 06:44:59;;;;;;;18.55;7.25;;;17.60;99.90;;;;;;5024178;28;20207;-76
2021/07/05 06:47:26;;;;;;;13.48;6.25;;;17.60;99.90;;;;;;5023246;28;20226;-79
2021/07/05 06:49:54;;;;;;;14.38;6.28;;;17.70;99.90;;;;;;5024127;28;20806;-78
2021/07/05 06:52:20;;;;;;;15.88;6.40;;;17.70;99.90;;;;;;5024050;28;20218;-81
2021/07/05 06:54:47;;;;;;;17.67;6.60;;;17.60;99.90;;;;;;5023699;28;20207;-80
2021/07/05 06:59:55;;;;;;;14.90;5.95;;;17.70;99.90;;;;;;5023784;28;20206;-77
2021/07/05 07:02:22;;;;;;;12.80;5.60;;;17.70;99.90;;;;;;5026936;28;20542;-79
2021/07/05 07:04:48;;;;;;;7.93;4.80;;;17.70;99.90;;;;;;5043450;28;20201;-79
2021/07/05 07:07:17;;;;;;;8.45;4.82;;;17.70;99.90;;;;;;5042914;28;20225;-79
2021/07/05 07:09:44;;;;;;;8.23;4.70;;;17.70;99.90;;;;;;5037664;28;20221;-81
2021/07/05 07:12:11;;;;;;;11.05;4.43;;;17.70;99.90;;;;;;5022803;28;20199;-80
2021/07/05 07:14:38;;;;;;;12.48;5.50;;;17.70;99.90;;;;;;5023079;28;20182;-80
2021/07/05 07:17:07;;;;;;;10.75;5.97;;;17.70;99.90;;;;;;5021927;28;20292;-78
2021/07/05 07:19:34;;;;;;;17.58;5.72;;;17.90;99.90;;;;;;5022751;28;20202;-78
2021/07/05 07:22:03;;;;;;;12.45;5.38;;;18.10;99.90;;;;;;5021300;28;20261;-80
2021/07/05 07:24:32;;;;;;;13.63;4.75;;;18.30;99.90;;;;;;5021399;28;20210;-79
2021/07/05 07:27:02;;;;;;;11.43;4.90;;;18.30;99.90;;;;;;5022307;28;20339;-79
2021/07/05 07:29:29;;;;;;;12.02;4.97;;;18.50;99.90;;;;;;5022638;28;20207;-79
2021/07/05 07:31:56;;;;;;;15.13;5.72;;;18.60;99.90;;;;;;5021840;28;20651;-80
2021/07/05 07:34:23;;;;;;;13.77;5.40;;;18.60;99.90;;;;;;5022404;28;22146;-76
2021/07/05 07:40:21;;;;;;;12.38;4.20;;;18.70;99.90;;;;;;5014449;28;20664;-80
2021/07/05 07:42:49;;;;;;;9.68;4.10;;;18.90;99.90;;;;;;5022673;28;20676;-79
2021/07/05 07:45:17;;;;;;;15.25;4.93;;;18.90;99.90;;;;;;5022427;28;20201;-79
2021/07/05 07:47:45;;;;;;;11.98;4.65;;;19.00;99.90;;;;;;5023219;28;20226;-79
2021/07/05 07:50:14;;;;;;;9.93;3.78;;;19.00;99.90;;;;;;5022561;28;20249;-79
2021/07/05 07:52:41;;;;;;;15.82;4.20;;;19.00;99.90;;;;;;5022146;28;20191;-78
2021/07/05 07:55:10;;;;;;;11.15;4.63;;;19.00;99.90;;;;;;5013380;28;20195;-78
2021/07/05 07:57:39;;;;;;;11.57;4.50;;;19.10;99.90;;;;;;5022309;28;20198;-79
2021/07/05 08:00:08;;;;;;;12.23;4.80;;;19.10;99.90;;;;;;5021974;28;20210;-79
2021/07/05 08:02:35;;;;;;;14.65;4.47;;;19.10;99.90;;;;;;5023133;28;20603;-79
2021/07/05 08:05:02;;;;;;;14.80;4.95;;;19.30;99.90;;;;;;5022237;28;20202;-79
2021/07/05 08:07:28;;;;;;;8.93;4.20;;;19.30;99.90;;;;;;5022000;28;20217;-80
2021/07/05 08:09:55;;;;;;;13.18;4.68;;;19.30;99.90;;;;;;5022173;28;20198;-79
2021/07/05 08:12:23;;;;;;;9.02;3.70;;;19.30;99.90;;;;;;5021706;28;20211;-80
2021/07/05 08:14:51;;;;;;;8.68;4.07;;;19.40;99.90;;;;;;5025430;28;20202;-79
2021/07/05 08:17:18;;;;;;;15.10;4.18;;;19.40;99.90;;;;;;5021313;28;20211;-81
2021/07/05 08:19:45;;;;;;;9.80;4.53;;;19.50;99.90;;;;;;5021503;28;20199;-80
2021/07/05 08:22:12;;;;;;;14.75;4.07;;;19.50;99.90;;;;;;5021238;28;20202;-82
2021/07/05 08:24:39;;;;;;;20.80;5.15;;;19.60;99.90;;;;;;5022508;28;20510;-80
2021/07/05 08:27:06;;;;;;;11.80;5.10;;;19.60;99.90;;;;;;5021067;28;20230;-80
2021/07/05 08:29:32;;;;;;;11.93;4.65;;;19.70;99.90;;;;;;5021798;28;20234;-81
2021/07/05 08:32:01;;;;;;;14.25;4.57;;;19.70;99.90;;;;;;5040224;28;20205;-77
2021/07/05 08:34:28;;;;;;;14.75;5.20;;;19.80;99.90;;;;;;5041936;28;20210;-79
2021/07/05 08:36:55;;;;;;;12.20;4.78;;;19.90;99.90;;;;;;5040435;28;20194;-79
2021/07/05 08:39:21;;;;;;;9.02;4.65;;;20.00;99.90;;;;;;5026067;28;20221;-80
2021/07/05 08:41:48;;;;;;;14.38;4.75;;;20.10;99.90;;;;;;5026315;28;20202;-76
2021/07/05 08:44:16;;;;;;;10.70;4.47;;;20.20;99.90;;;;;;5025935;28;20194;-80
2021/07/05 08:46:43;;;;;;;14.73;4.72;;;20.30;99.90;;;;;;5026466;28;20686;-78
2021/07/05 08:49:13;;;;;;;14.02;4.97;;;20.40;99.90;;;;;;5039153;28;20257;-78
2021/07/05 08:51:40;;;;;;;12.05;4.53;;;20.50;99.90;;;;;;5039195;28;20215;-79
2021/07/05 08:54:07;;;;;;;11.80;4.70;;;20.60;99.90;;;;;;5025084;28;20206;-82
2021/07/05 08:56:34;;;;;;;16.50;5.47;;;20.60;99.90;;;;;;5026155;28;20253;-79
2021/07/05 08:59:01;;;;;;;15.68;5.00;;;20.60;99.90;;;;;;5026743;28;20198;-79
2021/07/05 09:01:27;;;;;;;14.85;4.93;;;20.60;99.90;;;;;;5025447;28;20199;-79
2021/07/05 09:03:54;;;;;;;12.18;4.38;;;20.60;99.90;;;;;;5026752;28;20222;-82
2021/07/05 09:06:24;;;;;;;12.88;5.38;;;20.60;99.90;;;;;;5025941;28;20689;-79
2021/07/05 09:09:10;;;;;;;12.00;4.50;;;20.60;99.90;;;;;;5026118;28;20223;-81
2021/07/05 09:11:39;;;;;;;11.13;4.57;;;20.90;99.90;;;;;;5025830;28;20202;-80
2021/07/05 09:14:12;;;;;;;13.93;5.82;;;21.20;99.90;;;;;;5026105;28;20221;-80
2021/07/05 09:16:40;;;;;;;13.90;4.65;;;21.60;99.90;;;;;;5025343;28;20225;-80
2021/07/05 09:19:15;;;;;;;11.02;4.07;;;22.30;99.90;;;;;;5024915;28;20203;-80
2021/07/05 09:21:46;;;;;;;12.15;4.72;;;22.80;99.90;;;;;;5044139;28;20248;-80
2021/07/05 09:24:13;;;;;;;10.60;3.65;;;23.00;99.90;;;;;;5039587;28;20245;-79
2021/07/05 09:26:41;;;;;;;10.27;3.85;;;23.00;99.90;;;;;;5025208;28;20230;-80
2021/07/05 09:29:20;;;;;;;8.75;3.28;;;22.80;99.90;;;;;;5025548;28;20234;-80
2021/07/05 09:31:55;;;;;;;8.55;3.88;;;22.50;99.90;;;;;;5024986;28;20206;-78
2021/07/05 09:34:24;;;;;;;9.48;4.15;;;22.10;99.90;;;;;;5024615;28;20617;-80
2021/07/05 09:36:55;;;;;;;13.02;3.90;;;21.90;99.90;;;;;;5024721;28;20580;-79
2021/07/05 09:39:24;;;;;;;11.93;4.18;;;21.80;99.90;;;;;;5024806;28;20209;-77
2021/07/05 09:41:55;;;;;;;8.82;3.63;;;21.80;99.90;;;;;;5025426;28;20228;-79
2021/07/05 09:44:24;;;;;;;12.60;5.25;;;21.80;99.90;;;;;;5024234;28;20230;-80
2021/07/05 09:46:54;;;;;;;11.88;4.30;;;21.80;99.90;;;;;;5024815;28;20298;-80
2021/07/05 09:49:24;;;;;;;13.25;4.13;;;21.60;99.90;;;;;;5029514;28;20708;-81
2021/07/05 09:52:10;;;;;;;17.23;5.13;;;21.60;99.90;;;;;;5040327;28;20883;-79
2021/07/05 09:54:40;;;;;;;12.93;4.20;;;21.60;99.90;;;;;;5025410;28;20333;-78
2021/07/05 09:57:25;;;;;;;14.98;4.40;;;21.50;99.90;;;;;;5023993;28;20213;-79
2021/07/05 09:59:52;;;;;;;9.73;4.32;;;21.60;99.90;;;;;;5024431;28;20484;-80
2021/07/05 10:02:19;;;;;;;11.18;3.97;;;21.60;99.90;;;;;;5024202;28;20213;-81
2021/07/05 10:04:48;;;;;;;9.55;4.15;;;21.70;99.90;;;;;;5024080;28;20493;-79
2021/07/05 10:07:17;;;;;;;10.57;3.92;;;21.80;99.90;;;;;;5023680;28;20262;-79
2021/07/05 10:09:45;;;;;;;10.13;4.25;;;21.80;99.90;;;;;;5028773;28;20229;-79
2021/07/05 10:12:21;;;;;;;9.95;3.67;;;21.90;99.90;;;;;;5043008;28;20576;-81
2021/07/05 10:14:55;;;;;;;9.93;4.65;;;22.20;99.90;;;;;;5029753;28;20887;-78
2021/07/05 10:17:23;;;;;;;11.52;4.35;;;22.30;99.90;;;;;;5024479;28;20202;-79
2021/07/05 10:19:50;;;;;;;14.25;3.90;;;22.40;99.90;;;;;;5038882;28;20206;-78
2021/07/05 10:22:18;;;;;;;10.02;3.97;;;22.90;99.90;;;;;;5041429;28;20212;-80
2021/07/05 10:24:47;;;;;;;11.65;4.85;;;23.10;99.90;;;;;;5024187;28;20207;-80
2021/07/05 10:27:15;;;;;;;7.80;3.20;;;23.50;99.90;;;;;;5022907;28;20276;-82
2021/07/05 10:29:43;;;;;;;9.00;3.30;;;23.60;99.90;;;;;;5024003;28;20272;-80
2021/07/05 10:32:11;;;;;;;10.85;3.78;;;23.50;99.90;;;;;;5023070;28;20371;-79
2021/07/05 10:34:40;;;;;;;7.75;3.25;;;23.70;99.90;;;;;;5023303;28;20214;-80
2021/07/05 10:37:11;;;;;;;6.78;3.25;;;23.70;99.90;;;;;;5023973;28;20508;-79
2021/07/05 10:39:40;;;;;;;7.68;3.22;;;23.60;99.90;;;;;;5023934;28;20203;-78
2021/07/05 10:42:28;;;;;;;6.93;2.55;;;23.90;99.90;;;;;;5023967;28;20202;-80
2021/07/05 10:44:55;;;;;;;6.03;2.63;;;24.10;99.90;;;;;;5023483;28;20210;-79
2021/07/05 10:47:41;;;;;;;9.57;3.00;;;24.20;99.90;;;;;;5022934;28;20531;-80
2021/07/05 10:50:09;;;;;;;11.10;3.35;;;24.20;99.90;;;;;;5023545;28;20234;-79
2021/07/05 10:52:49;;;;;;;7.50;2.47;;;24.20;99.90;;;;;;5023950;28;20211;-79
2021/07/05 10:55:40;;;;;;;9.05;2.63;;;24.00;99.90;;;;;;5022483;28;20341;-80
2021/07/05 10:58:17;;;;;;;10.73;2.60;;;23.90;99.90;;;;;;5023220;28;20218;-80
2021/07/05 11:00:46;;;;;;;9.23;2.72;;;23.70;99.90;;;;;;5023093;28;20560;-78
2021/07/05 11:03:33;;;;;;;5.88;2.80;;;23.40;99.90;;;;;;5022907;28;20234;-79
2021/07/05 11:05:59;;;;;;;8.88;2.95;;;23.20;99.90;;;;;;5022546;28;20553;-79
2021/07/05 11:08:31;;;;;;;12.48;4.40;;;23.10;99.90;;;;;;5022827;28;20633;-78
2021/07/05 11:11:21;;;;;;;13.98;4.30;;;22.90;99.90;;;;;;5022778;28;20206;-80
2021/07/05 11:13:49;;;;;;;14.80;4.10;;;22.70;99.90;;;;;;5021440;28;20220;-80
2021/07/05 11:16:16;;;;;;;8.32;3.13;;;22.50;99.90;;;;;;5022023;28;20230;-81
2021/07/05 11:19:10;;;;;;;7.65;2.90;;;22.30;99.90;;;;;;5023096;28;20688;-81
2021/07/05 11:22:05;;;;;;;6.13;2.65;;;22.10;99.90;;;;;;5022642;28;20242;-81
2021/07/05 11:24:45;;;;;;;7.82;2.83;;;22.00;99.90;;;;;;5010095;28;20232;-79
2021/07/05 11:27:28;;;;;;;9.10;3.40;;;22.10;99.90;;;;;;5022088;28;20850;-80
2021/07/05 11:29:56;;;;;;;10.07;2.92;;;22.40;99.90;;;;;;5021842;28;20241;-79
2021/07/05 11:32:36;;;;;;;8.52;2.75;;;22.70;99.90;;;;;;5022768;28;20425;-75
2021/07/05 11:35:05;;;;;;;9.00;2.97;;;22.70;99.90;;;;;;5023080;28;20203;-75
2021/07/05 11:37:34;;;;;;;7.50;2.92;;;22.70;99.90;;;;;;5022436;28;20206;-79
2021/07/05 11:40:01;;;;;;;5.90;2.50;;;22.70;99.90;;;;;;5022481;28;20202;-80
2021/07/05 11:43:00;;;;;;;7.85;3.25;;;22.80;99.90;;;;;;5022208;28;20198;-80
2021/07/05 11:45:41;;;;;;;7.05;3.05;;;22.90;99.90;;;;;;5022677;28;20221;-80
2021/07/05 11:48:10;;;;;;;7.82;2.40;;;23.00;99.90;;;;;;5022000;28;20210;-83
2021/07/05 11:50:40;;;;;;;8.20;2.97;;;23.10;99.90;;;;;;5022676;28;20994;-79
2021/07/05 11:53:12;;;;;;;6.82;2.63;;;23.20;99.90;;;;;;5021683;28;20237;-80
2021/07/05 11:55:39;;;;;;;4.78;2.10;;;23.30;99.90;;;;;;5022415;28;20209;-80
2021/07/05 11:58:09;;;;;;;5.10;2.10;;;23.30;99.90;;;;;;5021959;28;20214;-81
2021/07/05 12:00:37;;;;;;;8.00;2.40;;;23.30;99.90;;;;;;5022047;28;20199;-79
2021/07/05 12:03:05;;;;;;;6.35;2.40;;;23.30;99.90;;;;;;5021750;28;20214;-79
2021/07/05 12:05:33;;;;;;;8.20;2.60;;;23.30;99.90;;;;;;5021572;28;20222;-77
2021/07/05 12:08:05;;;;;;;6.25;2.22;;;23.40;99.90;;;;;;5022216;28;20214;-78
2021/07/05 12:10:33;;;;;;;5.68;2.45;;;23.50;99.90;;;;;;5021553;28;20237;-79
2021/07/05 12:13:17;;;;;;;5.55;2.20;;;23.40;99.90;;;;;;5021246;28;20206;-80
2021/07/05 12:15:53;;;;;;;7.25;2.45;;;23.70;99.90;;;;;;5022654;28;20218;-79
2021/07/05 12:18:20;;;;;;;8.75;3.05;;;23.80;99.90;;;;;;5021414;28;20189;-80
2021/07/05 12:20:56;;;;;;;5.70;2.00;;;23.80;99.90;;;;;;5022240;28;20234;-78
2021/07/05 12:23:23;;;;;;;7.32;2.65;;;23.90;99.90;;;;;;5023105;28;20810;-77
2021/07/05 12:25:50;;;;;;;8.40;3.03;;;24.20;99.90;;;;;;5021714;28;20638;-79
2021/07/05 12:28:18;;;;;;;10.95;2.65;;;24.40;99.90;;;;;;5022486;28;20202;-81
2021/07/05 12:30:47;;;;;;;7.72;2.65;;;24.40;99.90;;;;;;5022553;28;20234;-80
2021/07/05 12:33:14;;;;;;;8.15;2.90;;;24.50;99.90;;;;;;5022797;28;20503;-81
2021/07/05 12:35:41;;;;;;;5.55;2.80;;;24.50;99.90;;;;;;5022876;28;20768;-78
2021/07/05 12:38:12;;;;;;;6.85;2.97;;;24.50;99.90;;;;;;5022739;28;20214;-78
2021/07/05 12:40:40;;;;;;;6.57;2.65;;;24.70;99.90;;;;;;5022517;28;20249;-79
2021/07/05 12:43:08;;;;;;;8.07;2.90;;;24.80;99.90;;;;;;5022564;28;20213;-81
2021/07/05 12:45:39;;;;;;;5.00;2.53;;;25.00;99.90;;;;;;5022755;28;20836;-82
2021/07/05 12:48:17;;;;;;;9.00;2.88;;;25.40;99.90;;;;;;5022881;28;20230;-81
2021/07/05 12:50:50;;;;;;;6.20;2.38;;;25.70;99.90;;;;;;5022774;28;20561;-76
2021/07/05 12:53:21;;;;;;;7.63;3.15;;;25.80;99.90;;;;;;5023274;28;20545;-77
2021/07/05 12:55:57;;;;;;;5.28;2.90;;;25.90;99.90;;;;;;5022771;28;20218;-78